»·PEaware :: CGMWT KPSP-KAVX

CGMWT :: KPSP-KAVX

FLIGHT INFORMATION

Flight Status: Arrived
Operator: Unknown
More flights by this operator :: More flights under this callsign
Pilot: Konrad W. (32064)
Aircraft: PIPER PA-44 SEMINOLE
(PA44)
More flights by this aircraft type
Origin: KPSP Palm Springs Intl
United States
Destination: KAVX Catalina
United States
More flights between these airports :: More routes between these airports
Route: CATH1 PSP V388 PDZ V8 SLI V21 SXC
File this flight plan on PilotEdge
Remarks:
Altitude:
(Current/Filed)
10,000ft
Speed:
(Current/Filed)
150kts
Departed: 05-Jan-21 09:05 PM
Arrived: 05-Jan-21 10:01 PM
Distance/Time
Traveled:
99nm/0:56
Distance/Time
To Go:
Arrived

Flight Plot

Page will automatically refresh every two minutes.

Flight plan parsing failed; only flown route is shown


Map Options




Map Legend


Flown Route
Filed Route
Departure Airport
Arrival Airport
Navaid (VOR, NDB)
Fix

Horizontal Profiles

Position Reports

Time Latitude Longitude Heading Altitude Ground
Speed
05-Jan-21 20:44 0.000407 0.013975 0 3ft 0kts
05-Jan-21 20:45 33.832197 -116.513457 128 450ft 0kts
05-Jan-21 20:46 33.832197 -116.513457 128 450ft 0kts
05-Jan-21 20:47 33.832197 -116.513457 128 450ft 0kts
05-Jan-21 20:48 33.832197 -116.513457 128 450ft 0kts
05-Jan-21 20:49 33.832197 -116.513457 128 450ft 0kts
05-Jan-21 20:50 33.832197 -116.513457 128 450ft 0kts
05-Jan-21 20:51 33.832197 -116.513457 128 450ft 0kts
05-Jan-21 20:52 33.832197 -116.513457 128 450ft 0kts
05-Jan-21 20:53 33.832197 -116.513457 128 450ft 0kts
05-Jan-21 20:54 33.832197 -116.513457 128 450ft 0kts
05-Jan-21 20:55 33.832197 -116.513457 128 450ft 0kts
05-Jan-21 20:56 33.832197 -116.513457 128 450ft 0kts
05-Jan-21 20:57 33.832197 -116.513457 128 450ft 0kts
05-Jan-21 20:58 33.832196 -116.513457 128 450ft 0kts
05-Jan-21 20:59 33.832196 -116.513457 128 450ft 0kts
05-Jan-21 21:01 33.831236 -116.511203 143 444ft 28kts
05-Jan-21 21:02 33.823218 -116.503724 102 414ft 14kts
05-Jan-21 21:03 33.823262 -116.503209 65 413ft 0kts
05-Jan-21 21:04 33.824632 -116.503163 322 414ft 0kts
05-Jan-21 21:05 33.840779 -116.517755 321 934ft 134kts
05-Jan-21 21:06 33.873515 -116.546639 322 2230ft 149kts
05-Jan-21 21:07 33.907608 -116.553330 69 3522ft 154kts
05-Jan-21 21:08 33.894996 -116.505173 113 4835ft 151kts
05-Jan-21 21:09 33.879551 -116.458267 113 6142ft 151kts
05-Jan-21 21:10 33.899264 -116.445350 277 7442ft 139kts
05-Jan-21 21:11 33.886903 -116.488268 268 8750ft 137kts
05-Jan-21 21:12 33.896266 -116.532179 286 9969ft 140kts
05-Jan-21 21:13 33.908822 -116.582342 286 10014ft 162kts
05-Jan-21 21:13 33.919757 -116.625575 286 10009ft 162kts
05-Jan-21 21:15 33.935110 -116.686215 286 10012ft 162kts
05-Jan-21 21:16 33.948208 -116.738376 286 10008ft 162kts
05-Jan-21 21:17 33.961349 -116.790447 286 10018ft 163kts
05-Jan-21 21:17 33.972768 -116.833680 291 10015ft 162kts
05-Jan-21 21:18 33.978479 -116.887397 266 10011ft 162kts
05-Jan-21 21:20 33.972414 -116.950357 264 9869ft 168kts
05-Jan-21 21:20 33.967863 -116.998229 263 9206ft 173kts
05-Jan-21 21:21 33.962476 -117.056308 264 8402ft 175kts
05-Jan-21 21:22 33.957138 -117.113486 264 8018ft 166kts
05-Jan-21 21:23 33.952096 -117.167719 264 8016ft 165kts
05-Jan-21 21:24 33.946997 -117.222565 264 8014ft 165kts
05-Jan-21 21:25 33.941899 -117.277298 264 8014ft 165kts
05-Jan-21 21:26 33.936790 -117.332038 264 8021ft 165kts
05-Jan-21 21:27 33.931725 -117.386363 264 8025ft 165kts
05-Jan-21 21:28 33.926621 -117.441165 264 8025ft 165kts
05-Jan-21 21:29 33.921555 -117.495525 264 8023ft 165kts
05-Jan-21 21:30 33.914313 -117.549479 243 8021ft 166kts
05-Jan-21 21:31 33.896733 -117.600419 249 8022ft 165kts
05-Jan-21 21:32 33.880658 -117.651988 250 8025ft 165kts
05-Jan-21 21:33 33.866458 -117.704336 261 8031ft 165kts
05-Jan-21 21:34 33.857342 -117.758817 257 7857ft 171kts
05-Jan-21 21:35 33.844542 -117.813514 253 7276ft 173kts
05-Jan-21 21:36 33.834027 -117.855456 253 6826ft 174kts
05-Jan-21 21:37 33.820922 -117.906898 253 6264ft 174kts
05-Jan-21 21:38 33.807062 -117.961377 253 6001ft 166kts
05-Jan-21 21:39 33.793547 -118.014491 253 6000ft 166kts
05-Jan-21 21:40 33.770569 -118.060797 231 5992ft 167kts
05-Jan-21 21:41 33.736006 -118.097381 219 5993ft 168kts
05-Jan-21 21:42 33.697987 -118.131845 218 5650ft 176kts
05-Jan-21 21:43 33.658511 -118.167516 218 4949ft 177kts
05-Jan-21 21:44 33.618862 -118.203295 218 4100ft 180kts
05-Jan-21 21:45 33.580473 -118.237906 218 4005ft 169kts
05-Jan-21 21:46 33.542974 -118.271678 218 4007ft 166kts
05-Jan-21 21:47 33.505596 -118.305297 218 4009ft 166kts
05-Jan-21 21:48 33.469389 -118.337845 218 4008ft 168kts
05-Jan-21 21:49 33.432050 -118.371383 218 4008ft 169kts
05-Jan-21 21:50 33.397044 -118.407504 256 4005ft 167kts
05-Jan-21 21:51 33.423807 -118.418086 31 3994ft 129kts
05-Jan-21 21:52 33.456736 -118.407907 3 3991ft 121kts
05-Jan-21 21:53 33.489946 -118.410389 323 3670ft 126kts
05-Jan-21 21:54 33.517366 -118.436408 319 3403ft 122kts
05-Jan-21 21:55 33.532459 -118.425451 134 3380ft 115kts
05-Jan-21 21:56 33.509334 -118.401725 173 3368ft 108kts
05-Jan-21 21:57 33.478426 -118.404627 191 2877ft 118kts
05-Jan-21 21:58 33.445666 -118.409464 188 2239ft 111kts
05-Jan-21 21:59 33.415926 -118.408966 168 1976ft 105kts
05-Jan-21 22:00 33.402344 -118.419778 120 1602ft 10kts
05-Jan-21 22:01 33.403319 -118.415885 104 1588ft 11kts
05-Jan-21 22:02 33.403668 -118.415580 315 1584ft 0kts
05-Jan-21 22:03 33.403668 -118.415580 315 1584ft 0kts

Navigation Log

Ident Type
Flight plan parsing failed, navigation log unavailable